createdAt,value
2023-01-29T00:00:13.931Z,-0.08
2023-01-29T00:03:01.903Z,-0.09
2023-01-29T00:05:29.938Z,-0.12
2023-01-29T00:07:57.975Z,-0.12
2023-01-29T00:10:26.836Z,-0.13
2023-01-29T00:12:55.242Z,-0.13
2023-01-29T00:15:23.487Z,-0.12
2023-01-29T00:17:51.608Z,-0.17
2023-01-29T00:20:19.787Z,-0.21
2023-01-29T00:22:47.993Z,-0.21
2023-01-29T00:25:16.088Z,-0.19
2023-01-29T00:27:44.757Z,-0.16
2023-01-29T00:30:13.607Z,-0.16
2023-01-29T00:32:42.037Z,-0.14
2023-01-29T00:35:10.123Z,-0.12
2023-01-29T00:37:38.473Z,-0.11
2023-01-29T00:40:06.857Z,-0.11
2023-01-29T00:42:53.264Z,-0.11
2023-01-29T00:45:21.423Z,-0.10
2023-01-29T00:47:49.319Z,-0.13
2023-01-29T00:50:17.784Z,-0.16
2023-01-29T00:52:46.089Z,-0.15
2023-01-29T00:55:14.095Z,-0.12
2023-01-29T00:57:42.028Z,-0.16
2023-01-29T01:00:14.081Z,-0.20
2023-01-29T01:03:01.346Z,-0.24
2023-01-29T01:05:29.655Z,-0.25
2023-01-29T01:07:58.634Z,-0.24
2023-01-29T01:10:30.461Z,-0.24
2023-01-29T01:13:03.798Z,-0.24
2023-01-29T01:15:36.047Z,-0.20
2023-01-29T01:18:04.708Z,-0.20
2023-01-29T01:20:34.824Z,-0.19
2023-01-29T01:23:03.241Z,-0.16
2023-01-29T01:25:31.743Z,-0.12
2023-01-29T01:30:27.170Z,-0.08
2023-01-29T01:32:55.282Z,-0.07
2023-01-29T01:35:23.198Z,-0.06
2023-01-29T01:37:51.126Z,-0.08
2023-01-29T01:40:21.345Z,-0.09
2023-01-29T01:42:51.915Z,-0.10
2023-01-29T01:45:24.875Z,-0.11
2023-01-29T01:47:56.093Z,-0.12
2023-01-29T01:50:31.340Z,-0.12
2023-01-29T01:53:11.551Z,-0.10
2023-01-29T01:55:56.142Z,-0.08
2023-01-29T01:58:53.059Z,-0.07
2023-01-29T02:01:30.243Z,-0.05
2023-01-29T02:04:23.119Z,-0.03
2023-01-29T02:07:12.475Z,-0.03
2023-01-29T02:09:46.535Z,-0.01
2023-01-29T02:12:16.396Z,-0.03
2023-01-29T02:14:44.904Z,-0.06
2023-01-29T02:17:18.859Z,-0.08
2023-01-29T02:20:14.535Z,-0.07
2023-01-29T02:22:56.074Z,-0.05
2023-01-29T02:26:13.596Z,-0.05
2023-01-29T02:29:22.575Z,-0.03
2023-01-29T02:32:03.578Z,-0.02
2023-01-29T02:35:10.381Z,-0.00
2023-01-29T02:38:15.790Z,0.01
2023-01-29T02:40:47.155Z,0.03
2023-01-29T02:43:46.751Z,0.07
2023-01-29T02:46:40.183Z,0.08
2023-01-29T02:49:17.442Z,0.10
2023-01-29T02:51:55.608Z,0.10
2023-01-29T02:54:28.628Z,0.08
2023-01-29T02:56:59.834Z,0.04
2023-01-29T02:59:36.870Z,0.02
2023-01-29T03:02:16.663Z,-0.00
2023-01-29T03:04:53.943Z,-0.04
2023-01-29T03:07:42.399Z,-0.08
2023-01-29T03:10:35.364Z,-0.11
2023-01-29T03:13:14.767Z,-0.16
2023-01-29T03:15:47.478Z,-0.19
2023-01-29T03:18:22.564Z,-0.23
2023-01-29T03:20:58.636Z,-0.25
2023-01-29T03:23:47.917Z,-0.30
2023-01-29T03:26:37.321Z,-0.33
2023-01-29T03:29:25.668Z,-0.36
2023-01-29T03:32:08.275Z,-0.40
2023-01-29T03:34:47.950Z,-0.47
2023-01-29T03:37:34.987Z,-0.55
2023-01-29T03:40:05.032Z,-0.63
2023-01-29T03:43:08.519Z,-0.70
2023-01-29T03:45:48.369Z,-0.76
2023-01-29T03:48:22.027Z,-0.82
2023-01-29T03:50:57.860Z,-0.89
2023-01-29T03:53:39.163Z,-0.92
2023-01-29T03:56:09.241Z,-0.98
2023-01-29T03:58:43.798Z,-1.02
2023-01-29T04:01:24.204Z,-1.03
2023-01-29T04:04:26.962Z,-1.05
2023-01-29T04:07:00.307Z,-1.06
2023-01-29T04:09:33.967Z,-1.04
2023-01-29T04:12:11.599Z,-1.00
2023-01-29T04:14:39.772Z,-0.94
2023-01-29T04:17:22.901Z,-0.90
2023-01-29T04:19:50.906Z,-0.91
2023-01-29T04:22:25.128Z,-0.96
2023-01-29T04:24:53.203Z,-0.99
2023-01-29T04:27:33.314Z,-0.99
2023-01-29T04:30:20.066Z,-0.97
2023-01-29T04:33:03.309Z,-0.97
2023-01-29T04:35:47.715Z,-0.96
2023-01-29T04:38:41.435Z,-0.94
2023-01-29T04:41:34.188Z,-0.93
2023-01-29T04:44:11.354Z,-0.94
2023-01-29T04:47:17.144Z,-0.92
2023-01-29T04:50:11.267Z,-0.88
2023-01-29T04:52:49.888Z,-0.85
2023-01-29T04:55:21.944Z,-0.88
2023-01-29T04:57:52.947Z,-0.93
2023-01-29T05:00:28.838Z,-0.96
2023-01-29T05:02:57.046Z,-0.99
2023-01-29T05:05:25.019Z,-1.01
2023-01-29T05:07:54.385Z,-1.02
2023-01-29T05:10:24.253Z,-1.05
2023-01-29T05:13:00.446Z,-1.03
2023-01-29T05:15:35.941Z,-1.03
2023-01-29T05:18:09.006Z,-1.05
2023-01-29T05:20:39.705Z,-1.09
2023-01-29T05:23:25.811Z,-1.11
2023-01-29T05:25:54.114Z,-1.10
2023-01-29T05:28:22.124Z,-1.09
2023-01-29T05:30:53.428Z,-1.10
2023-01-29T05:33:26.668Z,-1.11
2023-01-29T05:35:55.535Z,-1.13
2023-01-29T05:38:23.790Z,-1.14
2023-01-29T05:40:52.025Z,-1.16
2023-01-29T05:43:22.066Z,-1.20
2023-01-29T05:45:58.838Z,-1.23
2023-01-29T05:48:29.155Z,-1.28
2023-01-29T05:51:04.341Z,-1.32
2023-01-29T05:53:33.099Z,-1.32
2023-01-29T05:56:02.549Z,-1.27
2023-01-29T05:58:31.933Z,-1.23
2023-01-29T06:01:18.381Z,-1.18
2023-01-29T06:03:47.217Z,-1.15
2023-01-29T06:06:16.264Z,-1.16
2023-01-29T06:08:44.314Z,-1.16
2023-01-29T06:11:14.720Z,-1.15
2023-01-29T06:13:42.695Z,-1.13
2023-01-29T06:16:12.695Z,-1.10
2023-01-29T06:18:41.702Z,-1.07
2023-01-29T06:21:12.197Z,-1.05
2023-01-29T06:23:40.633Z,-1.05
2023-01-29T06:26:11.919Z,-1.02
2023-01-29T06:28:40.335Z,-1.02
2023-01-29T06:31:24.373Z,-1.04
2023-01-29T06:33:55.349Z,-1.07
2023-01-29T06:36:23.268Z,-1.07
2023-01-29T06:38:51.140Z,-1.05
2023-01-29T06:41:22.774Z,-1.03
2023-01-29T06:43:51.626Z,-1.03
2023-01-29T06:46:19.562Z,-1.04
2023-01-29T06:48:47.623Z,-1.05
2023-01-29T06:51:15.521Z,-1.06
2023-01-29T06:53:45.771Z,-1.07
2023-01-29T06:56:14.329Z,-1.07
2023-01-29T06:58:43.626Z,-1.05
2023-01-29T07:01:22.304Z,-1.02
2023-01-29T07:03:57.059Z,-1.01
2023-01-29T07:06:31.464Z,-1.03
2023-01-29T07:08:59.602Z,-1.06
2023-01-29T07:11:27.483Z,-1.15
2023-01-29T07:13:55.346Z,-1.21
2023-01-29T07:16:23.581Z,-1.24
2023-01-29T07:18:51.876Z,-1.28
2023-01-29T07:21:22.082Z,-1.31
2023-01-29T07:23:50.020Z,-1.32
2023-01-29T07:26:17.872Z,-1.31
2023-01-29T07:28:45.744Z,-1.29
2023-01-29T07:31:15.037Z,-1.24
2023-01-29T07:33:44.637Z,-1.20
2023-01-29T07:36:13.763Z,-1.18
2023-01-29T07:38:41.617Z,-1.19
2023-01-29T07:41:11.805Z,-1.20
2023-01-29T07:43:39.746Z,-1.20
2023-01-29T07:46:07.779Z,-1.21
2023-01-29T07:48:36.260Z,-1.25
2023-01-29T07:51:04.284Z,-1.25
2023-01-29T07:53:32.892Z,-1.23
2023-01-29T07:56:00.852Z,-1.21
2023-01-29T07:58:28.793Z,-1.21
2023-01-29T08:00:56.737Z,-1.22
2023-01-29T08:03:24.651Z,-1.21
2023-01-29T08:05:52.563Z,-1.21
2023-01-29T08:08:20.494Z,-1.21
2023-01-29T08:10:48.351Z,-1.20
2023-01-29T08:13:16.664Z,-1.18
2023-01-29T08:15:45.841Z,-1.15
2023-01-29T08:18:14.796Z,-1.13
2023-01-29T08:20:42.752Z,-1.09
2023-01-29T08:23:14.676Z,-1.08
2023-01-29T08:25:42.931Z,-1.08
2023-01-29T08:28:11.852Z,-1.07
2023-01-29T08:30:40.329Z,-1.05
2023-01-29T08:33:08.381Z,-1.03
2023-01-29T08:35:36.953Z,-1.02
2023-01-29T08:38:06.253Z,-1.02
2023-01-29T08:40:34.869Z,-1.00
2023-01-29T08:43:07.811Z,-1.00
2023-01-29T08:45:42.450Z,-1.00
2023-01-29T08:48:10.995Z,-0.97
2023-01-29T08:50:39.156Z,-0.93
2023-01-29T08:53:08.778Z,-0.87
2023-01-29T08:55:41.037Z,-0.82
2023-01-29T08:58:12.392Z,-0.74
2023-01-29T09:00:40.289Z,-0.67
2023-01-29T09:03:08.288Z,-0.59
2023-01-29T09:05:37.953Z,-0.54
2023-01-29T09:08:07.713Z,-0.50
2023-01-29T09:10:36.146Z,-0.50
2023-01-29T09:13:04.713Z,-0.51
2023-01-29T09:15:32.789Z,-0.51
2023-01-29T09:18:04.316Z,-0.48
2023-01-29T09:20:32.471Z,-0.45
2023-01-29T09:23:05.894Z,-0.42
2023-01-29T09:25:33.872Z,-0.37
2023-01-29T09:28:02.114Z,-0.32
2023-01-29T09:30:30.129Z,-0.30
2023-01-29T09:33:00.563Z,-0.29
2023-01-29T09:35:28.433Z,-0.24
2023-01-29T09:37:57.054Z,-0.20
2023-01-29T09:40:29.469Z,-0.21
2023-01-29T09:43:22.681Z,-0.23
2023-01-29T09:45:59.755Z,-0.27
2023-01-29T09:48:32.173Z,-0.32
2023-01-29T09:51:06.276Z,-0.36
2023-01-29T09:53:43.628Z,-0.38
2023-01-29T09:56:28.927Z,-0.38
2023-01-29T09:59:01.682Z,-0.38
2023-01-29T10:01:45.511Z,-0.40
2023-01-29T10:04:34.679Z,-0.41
2023-01-29T10:07:19.934Z,-0.39
2023-01-29T10:09:57.741Z,-0.33
2023-01-29T10:12:53.949Z,-0.29
2023-01-29T10:15:21.935Z,-0.30
2023-01-29T10:17:50.645Z,-0.29
2023-01-29T10:20:33.829Z,-0.27
2023-01-29T10:23:16.717Z,-0.26
2023-01-29T10:25:46.312Z,-0.22
2023-01-29T10:28:20.982Z,-0.19
2023-01-29T10:30:58.013Z,-0.16
2023-01-29T10:33:49.238Z,-0.15
2023-01-29T10:36:49.266Z,-0.16
2023-01-29T10:39:20.600Z,-0.10
2023-01-29T10:42:27.366Z,-0.04
2023-01-29T10:45:07.501Z,-0.02
2023-01-29T10:47:52.864Z,0.02
2023-01-29T10:50:26.951Z,0.07
2023-01-29T10:53:06.692Z,0.10
2023-01-29T10:56:21.916Z,0.08
2023-01-29T10:59:01.673Z,0.01
2023-01-29T11:01:29.538Z,-0.07
2023-01-29T11:04:11.988Z,-0.16
2023-01-29T11:06:39.947Z,-0.25
2023-01-29T11:09:10.879Z,-0.30
2023-01-29T11:11:48.654Z,-0.31
2023-01-29T11:14:22.665Z,-0.35
2023-01-29T11:16:51.320Z,-0.35
2023-01-29T11:19:37.097Z,-0.31
2023-01-29T11:22:05.136Z,-0.27
2023-01-29T11:24:32.943Z,-0.33
2023-01-29T11:27:00.778Z,-0.40
2023-01-29T11:29:39.350Z,-0.38
2023-01-29T11:32:19.939Z,-0.38
2023-01-29T11:35:16.353Z,-0.34
2023-01-29T11:37:46.931Z,-0.35
2023-01-29T11:40:38.694Z,-0.40
2023-01-29T11:43:20.159Z,-0.42
2023-01-29T11:45:55.271Z,-0.44
2023-01-29T11:48:28.911Z,-0.43
2023-01-29T11:51:00.850Z,-0.44
2023-01-29T11:53:45.554Z,-0.48
2023-01-29T11:56:21.803Z,-0.52
2023-01-29T11:58:51.732Z,-0.58
2023-01-29T12:01:31.409Z,-0.58
2023-01-29T12:04:00.344Z,-0.56
2023-01-29T12:06:38.155Z,-0.55
2023-01-29T12:09:16.832Z,-0.54
2023-01-29T12:11:44.979Z,-0.53
2023-01-29T12:14:34.247Z,-0.53
2023-01-29T12:17:11.175Z,-0.52
2023-01-29T12:19:52.904Z,-0.53
2023-01-29T12:22:26.476Z,-0.52
2023-01-29T12:25:00.514Z,-0.49
2023-01-29T12:27:43.485Z,-0.47
2023-01-29T12:30:20.330Z,-0.49
2023-01-29T12:33:15.006Z,-0.52
2023-01-29T12:35:48.247Z,-0.59
2023-01-29T12:38:22.021Z,-0.62
2023-01-29T12:40:55.325Z,-0.59
2023-01-29T12:43:38.815Z,-0.56
2023-01-29T12:46:11.539Z,-0.54
2023-01-29T12:48:43.901Z,-0.54
2023-01-29T12:51:20.116Z,-0.57
2023-01-29T12:54:00.465Z,-0.64
2023-01-29T12:56:42.136Z,-0.68
2023-01-29T12:59:29.349Z,-0.70
2023-01-29T13:02:04.264Z,-0.74
2023-01-29T13:04:47.036Z,-0.76
2023-01-29T13:07:26.163Z,-0.76
2023-01-29T13:10:05.692Z,-0.76
2023-01-29T13:12:34.747Z,-0.75
2023-01-29T13:15:18.091Z,-0.77
2023-01-29T13:18:31.121Z,-0.80
2023-01-29T13:21:01.046Z,-0.81
2023-01-29T13:23:37.187Z,-0.84
2023-01-29T13:26:06.051Z,-0.87
2023-01-29T13:28:34.325Z,-0.89
2023-01-29T13:31:11.291Z,-0.90
2023-01-29T13:33:41.831Z,-0.89
2023-01-29T13:36:20.079Z,-0.91
2023-01-29T13:39:07.635Z,-0.96
2023-01-29T13:41:42.506Z,-0.95
2023-01-29T13:44:50.448Z,-0.94
2023-01-29T13:47:29.495Z,-0.93
2023-01-29T13:50:09.618Z,-0.95
2023-01-29T13:52:44.641Z,-0.95
2023-01-29T13:55:15.837Z,-0.92
2023-01-29T13:57:43.849Z,-0.87
2023-01-29T14:00:20.733Z,-0.86
2023-01-29T14:03:08.875Z,-0.88
2023-01-29T14:05:55.177Z,-0.90
2023-01-29T14:08:34.950Z,-0.89
2023-01-29T14:11:19.211Z,-0.88
2023-01-29T14:13:52.461Z,-0.89
2023-01-29T14:16:23.565Z,-0.89
2023-01-29T14:19:00.730Z,-0.94
2023-01-29T14:21:34.603Z,-0.97
2023-01-29T14:24:18.915Z,-0.97
2023-01-29T14:26:49.530Z,-0.99
2023-01-29T14:29:33.830Z,-1.03
2023-01-29T14:32:08.132Z,-1.08
2023-01-29T14:34:47.875Z,-1.12
2023-01-29T14:37:15.811Z,-1.17
2023-01-29T14:39:58.407Z,-1.19
2023-01-29T14:42:32.998Z,-1.19
2023-01-29T14:45:09.249Z,-1.19
2023-01-29T14:47:37.107Z,-1.20
2023-01-29T14:50:31.771Z,-1.22
2023-01-29T14:53:32.119Z,-1.23
2023-01-29T14:56:02.978Z,-1.23
2023-01-29T14:58:43.110Z,-1.25
2023-01-29T15:01:25.854Z,-1.29
2023-01-29T15:04:21.516Z,-1.33
2023-01-29T15:07:01.657Z,-1.37
2023-01-29T15:10:22.015Z,-1.40
2023-01-29T15:13:03.251Z,-1.41
2023-01-29T15:15:53.076Z,-1.41
2023-01-29T15:18:32.166Z,-1.41
2023-01-29T15:21:11.805Z,-1.38
2023-01-29T15:23:40.887Z,-1.40
2023-01-29T15:26:19.355Z,-1.42
2023-01-29T15:29:03.572Z,-1.40
2023-01-29T15:31:33.152Z,-1.37
2023-01-29T15:34:06.857Z,-1.35
2023-01-29T15:36:37.165Z,-1.32
2023-01-29T15:39:23.891Z,-1.32
2023-01-29T15:42:10.687Z,-1.33
2023-01-29T15:44:45.108Z,-1.36
2023-01-29T15:47:14.554Z,-1.37
2023-01-29T15:49:45.190Z,-1.39
2023-01-29T15:52:17.902Z,-1.40
2023-01-29T15:54:46.654Z,-1.43
2023-01-29T15:57:23.428Z,-1.46
2023-01-29T15:59:54.073Z,-1.50
2023-01-29T16:02:34.516Z,-1.52
2023-01-29T16:05:05.179Z,-1.52
2023-01-29T16:07:35.105Z,-1.51
2023-01-29T16:10:04.416Z,-1.51
2023-01-29T16:12:33.690Z,-1.51
2023-01-29T16:15:03.890Z,-1.51
2023-01-29T16:17:36.862Z,-1.51
2023-01-29T16:20:07.086Z,-1.53
2023-01-29T16:22:37.312Z,-1.52
2023-01-29T16:25:07.849Z,-1.49
2023-01-29T16:27:35.784Z,-1.48
2023-01-29T16:30:05.664Z,-1.47
2023-01-29T16:32:33.804Z,-1.49
2023-01-29T16:35:01.915Z,-1.50
2023-01-29T16:37:36.444Z,-1.51
2023-01-29T16:40:33.085Z,-1.57
2023-01-29T16:43:22.745Z,-1.64
2023-01-29T16:46:04.922Z,-1.66
2023-01-29T16:48:34.838Z,-1.66
2023-01-29T16:51:14.137Z,-1.64
2023-01-29T16:54:21.611Z,-1.61
2023-01-29T16:56:52.901Z,-1.60
2023-01-29T16:59:28.562Z,-1.59
2023-01-29T17:01:56.840Z,-1.61
2023-01-29T17:04:25.009Z,-1.65
2023-01-29T17:07:01.674Z,-1.67
2023-01-29T17:09:33.455Z,-1.67
2023-01-29T17:12:05.612Z,-1.66
2023-01-29T17:14:34.490Z,-1.63
2023-01-29T17:17:05.660Z,-1.62
2023-01-29T17:19:33.606Z,-1.60
2023-01-29T17:22:04.795Z,-1.60
2023-01-29T17:24:32.656Z,-1.60
2023-01-29T17:27:01.692Z,-1.63
2023-01-29T17:29:31.310Z,-1.65
2023-01-29T17:32:02.445Z,-1.63
2023-01-29T17:34:30.410Z,-1.58
2023-01-29T17:36:58.291Z,-1.54
2023-01-29T17:39:26.280Z,-1.51
2023-01-29T17:41:56.162Z,-1.49
2023-01-29T17:44:27.727Z,-1.50
2023-01-29T17:46:55.785Z,-1.51
2023-01-29T17:49:29.633Z,-1.50
2023-01-29T17:51:57.467Z,-1.50
2023-01-29T17:54:27.992Z,-1.58
2023-01-29T17:56:56.540Z,-1.64
2023-01-29T17:59:28.582Z,-1.69
2023-01-29T18:01:56.691Z,-1.74
2023-01-29T18:04:25.002Z,-1.74
2023-01-29T18:06:54.416Z,-1.74
2023-01-29T18:09:22.466Z,-1.76
2023-01-29T18:11:51.459Z,-1.81
2023-01-29T18:14:19.695Z,-1.85
2023-01-29T18:16:47.697Z,-1.85
2023-01-29T18:19:21.040Z,-1.83
2023-01-29T18:21:50.490Z,-1.82
2023-01-29T18:24:20.432Z,-1.83
2023-01-29T18:26:49.653Z,-1.85
2023-01-29T18:29:17.890Z,-1.88
2023-01-29T18:31:49.250Z,-1.87
2023-01-29T18:34:17.318Z,-1.86
2023-01-29T18:36:47.685Z,-1.85
2023-01-29T18:39:16.524Z,-1.85
2023-01-29T18:41:44.706Z,-1.83
2023-01-29T18:44:12.720Z,-1.82
2023-01-29T18:46:40.622Z,-1.85
2023-01-29T18:49:08.710Z,-1.87
2023-01-29T18:51:36.653Z,-1.88
2023-01-29T18:54:04.821Z,-1.87
2023-01-29T18:56:32.704Z,-1.88
2023-01-29T18:59:00.648Z,-1.90
2023-01-29T19:01:28.816Z,-1.91
2023-01-29T19:03:59.128Z,-1.93
2023-01-29T19:06:26.992Z,-1.94
2023-01-29T19:08:54.893Z,-1.91
2023-01-29T19:11:22.813Z,-1.90
2023-01-29T19:13:50.967Z,-1.89
2023-01-29T19:16:18.872Z,-1.86
2023-01-29T19:18:46.722Z,-1.86
2023-01-29T19:21:16.283Z,-1.87
2023-01-29T19:23:44.934Z,-1.88
2023-01-29T19:26:13.683Z,-1.87
2023-01-29T19:28:42.057Z,-1.88
2023-01-29T19:31:10.160Z,-1.91
2023-01-29T19:33:39.197Z,-1.91
2023-01-29T19:36:07.745Z,-1.95
2023-01-29T19:38:38.582Z,-1.94
2023-01-29T19:41:06.693Z,-1.94
2023-01-29T19:43:34.645Z,-1.96
2023-01-29T19:46:02.756Z,-1.94
2023-01-29T19:48:30.676Z,-1.95
2023-01-29T19:51:04.351Z,-1.96
2023-01-29T19:53:32.368Z,-1.98
2023-01-29T19:56:04.972Z,-2.03
2023-01-29T19:58:33.406Z,-2.07
2023-01-29T20:01:07.340Z,-2.09
2023-01-29T20:03:35.314Z,-2.09
2023-01-29T20:06:08.512Z,-2.08
2023-01-29T20:08:36.787Z,-2.07
2023-01-29T20:11:05.705Z,-2.13
2023-01-29T20:13:36.687Z,-2.16
2023-01-29T20:16:05.698Z,-2.17
2023-01-29T20:18:33.738Z,-2.17
2023-01-29T20:21:10.299Z,-2.17
2023-01-29T20:23:40.087Z,-2.17
2023-01-29T20:26:12.384Z,-2.16
2023-01-29T20:28:40.714Z,-2.19
2023-01-29T20:31:09.825Z,-2.24
2023-01-29T20:33:39.560Z,-2.28
2023-01-29T20:36:10.076Z,-2.28
2023-01-29T20:38:38.336Z,-2.31
2023-01-29T20:41:14.205Z,-2.34
2023-01-29T20:43:43.170Z,-2.36
2023-01-29T20:46:12.073Z,-2.36
2023-01-29T20:48:42.077Z,-2.43
2023-01-29T20:51:15.377Z,-2.48
2023-01-29T20:53:45.524Z,-2.46
2023-01-29T20:56:15.758Z,-2.43
2023-01-29T20:58:44.410Z,-2.43
2023-01-29T21:01:15.547Z,-2.47
2023-01-29T21:03:43.802Z,-2.50
2023-01-29T21:06:11.897Z,-2.53
2023-01-29T21:08:40.668Z,-2.55
2023-01-29T21:11:09.779Z,-2.57
2023-01-29T21:13:37.952Z,-2.57
2023-01-29T21:16:06.215Z,-2.60
2023-01-29T21:18:34.092Z,-2.62
2023-01-29T21:21:01.955Z,-2.64
2023-01-29T21:23:30.011Z,-2.65
2023-01-29T21:26:05.142Z,-2.65
2023-01-29T21:28:33.874Z,-2.64
2023-01-29T21:31:04.015Z,-2.65
2023-01-29T21:33:32.240Z,-2.66
2023-01-29T21:36:00.759Z,-2.70
2023-01-29T21:38:28.722Z,-2.75
2023-01-29T21:41:01.597Z,-2.77
2023-01-29T21:43:29.930Z,-2.79
2023-01-29T21:46:00.225Z,-2.82
2023-01-29T21:48:28.239Z,-2.84
2023-01-29T21:50:56.191Z,-2.86
2023-01-29T21:53:24.224Z,-2.88
2023-01-29T21:55:52.098Z,-2.88
2023-01-29T21:58:20.709Z,-2.87
2023-01-29T22:00:50.677Z,-2.87
2023-01-29T22:03:18.731Z,-2.87
2023-01-29T22:05:46.652Z,-2.89
2023-01-29T22:08:14.946Z,-2.90
2023-01-29T22:10:42.961Z,-2.90
2023-01-29T22:13:10.974Z,-2.91
2023-01-29T22:15:38.797Z,-2.92
2023-01-29T22:18:06.661Z,-2.89
2023-01-29T22:20:36.694Z,-2.85
2023-01-29T22:23:04.799Z,-2.81
2023-01-29T22:25:33.436Z,-2.80
2023-01-29T22:28:01.383Z,-2.79
2023-01-29T22:30:29.430Z,-2.78
2023-01-29T22:32:57.282Z,-2.78
2023-01-29T22:35:25.376Z,-2.76
2023-01-29T22:37:54.327Z,-2.76
2023-01-29T22:40:22.268Z,-2.77
2023-01-29T22:42:50.109Z,-2.79
2023-01-29T22:45:18.063Z,-2.82
2023-01-29T22:47:46.001Z,-2.83
2023-01-29T22:50:14.398Z,-2.84
2023-01-29T22:52:43.322Z,-2.89
2023-01-29T22:55:13.561Z,-2.91
2023-01-29T22:57:41.483Z,-2.93
2023-01-29T23:00:11.114Z,-2.94
2023-01-29T23:02:39.062Z,-2.95
2023-01-29T23:05:07.923Z,-2.94
2023-01-29T23:07:35.895Z,-2.91
2023-01-29T23:10:05.781Z,-2.90
2023-01-29T23:12:34.077Z,-2.87
2023-01-29T23:15:02.095Z,-2.83
2023-01-29T23:17:29.933Z,-2.81
2023-01-29T23:19:57.832Z,-2.81
2023-01-29T23:22:25.829Z,-2.82
2023-01-29T23:24:53.819Z,-2.82
2023-01-29T23:27:21.658Z,-2.82
2023-01-29T23:29:49.526Z,-2.80
2023-01-29T23:32:20.013Z,-2.79
2023-01-29T23:34:48.190Z,-2.79
2023-01-29T23:37:16.135Z,-2.79
2023-01-29T23:39:44.032Z,-2.78
2023-01-29T23:42:12.015Z,-2.77
2023-01-29T23:44:40.411Z,-2.77
2023-01-29T23:47:09.419Z,-2.77
2023-01-29T23:49:37.507Z,-2.79
2023-01-29T23:52:05.455Z,-2.79
2023-01-29T23:54:33.333Z,-2.77
2023-01-29T23:57:01.353Z,-2.74
2023-01-29T23:59:29.332Z,-2.71
